createdAt,value
2019-01-30T00:00:55.407Z,54.40
2019-01-30T00:03:26.207Z,57.30
2019-01-30T00:05:57.086Z,53.60
2019-01-30T00:08:28.086Z,57.77
2019-01-30T00:10:59.766Z,55.00
2019-01-30T00:13:30.446Z,59.83
2019-01-30T00:16:02.646Z,56.83
2019-01-30T00:18:33.447Z,58.90
2019-01-30T00:21:04.771Z,58.17
2019-01-30T00:23:35.552Z,48.43
2019-01-30T00:26:07.006Z,49.07
2019-01-30T00:28:37.961Z,59.50
2019-01-30T00:31:09.168Z,56.60
2019-01-30T00:33:40.127Z,53.37
2019-01-30T00:36:11.007Z,57.93
2019-01-30T00:38:41.688Z,56.77
2019-01-30T00:41:13.088Z,64.07
2019-01-30T00:43:43.966Z,63.70
2019-01-30T00:46:15.608Z,66.90
2019-01-30T00:48:46.566Z,62.23
2019-01-30T00:51:17.406Z,64.17
2019-01-30T00:53:48.527Z,59.17
2019-01-30T00:56:19.488Z,66.73
2019-01-30T00:58:50.926Z,60.80
2019-01-30T01:01:21.553Z,60.13
2019-01-30T01:03:52.768Z,61.17
2019-01-30T01:06:23.967Z,70.63
2019-01-30T01:08:55.046Z,62.47
2019-01-30T01:11:26.247Z,68.83
2019-01-30T01:13:59.840Z,67.20
2019-01-30T01:16:30.440Z,59.03
2019-01-30T01:19:01.280Z,59.23
2019-01-30T01:21:31.960Z,69.03
2019-01-30T01:24:03.282Z,62.27
2019-01-30T01:26:33.960Z,72.30
2019-01-30T01:29:05.361Z,68.60
2019-01-30T01:31:36.391Z,73.57
2019-01-30T01:34:07.378Z,75.23
2019-01-30T01:36:38.707Z,78.17
2019-01-30T01:39:10.307Z,75.73
2019-01-30T01:41:41.560Z,73.90
2019-01-30T01:44:12.907Z,75.93
2019-01-30T01:46:43.947Z,71.07
2019-01-30T01:49:14.915Z,67.53
2019-01-30T01:51:45.707Z,73.50
2019-01-30T01:54:16.435Z,73.97
2019-01-30T01:56:51.427Z,74.20
2019-01-30T01:59:22.227Z,67.60
2019-01-30T02:01:53.026Z,74.37
2019-01-30T02:04:23.748Z,81.90
2019-01-30T02:06:54.594Z,74.67
2019-01-30T02:09:25.667Z,68.87
2019-01-30T02:11:56.467Z,76.63
2019-01-30T02:14:28.076Z,76.13
2019-01-30T02:16:59.314Z,76.03
2019-01-30T02:19:29.948Z,80.70
2019-01-30T02:22:01.394Z,73.70
2019-01-30T02:24:31.947Z,84.13
2019-01-30T02:27:02.947Z,73.67
2019-01-30T02:29:33.667Z,79.63
2019-01-30T02:32:04.947Z,77.93
2019-01-30T02:34:36.187Z,81.13
2019-01-30T02:37:07.059Z,99.20
2019-01-30T02:39:37.868Z,75.30
2019-01-30T02:42:08.966Z,67.80
2019-01-30T02:44:39.827Z,72.97
2019-01-30T02:47:11.149Z,74.47
2019-01-30T02:49:42.073Z,74.80
2019-01-30T02:52:15.933Z,79.67
2019-01-30T02:54:46.496Z,69.37
2019-01-30T02:57:17.382Z,74.73
2019-01-30T02:59:49.453Z,71.63
2019-01-30T03:02:23.522Z,74.53
2019-01-30T03:04:54.503Z,76.50
2019-01-30T03:07:26.843Z,82.83
2019-01-30T03:09:57.574Z,73.03
2019-01-30T03:12:28.274Z,77.13
2019-01-30T03:14:59.702Z,85.10
2019-01-30T03:17:30.514Z,71.43
2019-01-30T03:20:01.214Z,79.97
2019-01-30T03:22:31.843Z,84.50
2019-01-30T03:25:02.576Z,77.43
2019-01-30T03:27:33.153Z,83.30
2019-01-30T03:30:04.696Z,84.70
2019-01-30T03:32:35.835Z,78.53
2019-01-30T03:35:06.920Z,83.00
2019-01-30T03:37:37.565Z,81.77
2019-01-30T03:40:09.994Z,92.80
2019-01-30T03:42:41.033Z,83.43
2019-01-30T03:45:12.716Z,87.70
2019-01-30T03:47:43.793Z,86.17
2019-01-30T03:50:15.013Z,75.30
2019-01-30T03:52:46.236Z,85.97
2019-01-30T03:55:17.913Z,80.90
2019-01-30T03:57:48.661Z,84.10
2019-01-30T04:00:21.523Z,84.60
2019-01-30T04:02:52.541Z,83.30
2019-01-30T04:05:23.753Z,102.33
2019-01-30T04:07:54.774Z,87.80
2019-01-30T04:10:25.271Z,78.03
2019-01-30T04:12:56.073Z,84.63
2019-01-30T04:15:26.874Z,82.60
2019-01-30T04:17:57.795Z,83.90
2019-01-30T04:20:28.473Z,82.47
2019-01-30T04:22:59.647Z,87.30
2019-01-30T04:25:30.415Z,92.70
2019-01-30T04:28:01.396Z,82.87
2019-01-30T04:30:32.034Z,90.77
2019-01-30T04:33:02.894Z,88.27
2019-01-30T04:35:33.395Z,93.83
2019-01-30T04:38:04.394Z,92.87
2019-01-30T04:40:35.034Z,92.37
2019-01-30T04:43:07.945Z,88.27
2019-01-30T04:45:38.973Z,87.47
2019-01-30T04:48:09.727Z,86.50
2019-01-30T04:50:40.981Z,123.70
2019-01-30T04:53:11.814Z,108.07
2019-01-30T04:55:42.933Z,91.40
2019-01-30T04:58:13.774Z,97.43
2019-01-30T05:00:44.501Z,104.20
2019-01-30T05:03:15.260Z,94.60
2019-01-30T05:05:46.093Z,90.30
2019-01-30T05:08:16.732Z,93.67
2019-01-30T05:10:48.136Z,87.27
2019-01-30T05:13:19.172Z,93.83
2019-01-30T05:15:50.413Z,106.07
2019-01-30T05:18:21.052Z,98.07
2019-01-30T05:20:51.885Z,98.27
2019-01-30T05:23:23.052Z,87.30
2019-01-30T05:25:53.692Z,92.17
2019-01-30T05:28:24.572Z,96.00
2019-01-30T05:30:55.574Z,111.07
2019-01-30T05:33:26.572Z,116.87
2019-01-30T05:35:57.630Z,107.00
2019-01-30T05:38:28.211Z,101.83
2019-01-30T05:40:59.494Z,98.73
2019-01-30T05:43:30.178Z,109.63
2019-01-30T05:46:01.411Z,85.03
2019-01-30T05:48:32.611Z,84.70
2019-01-30T05:51:03.731Z,88.17
2019-01-30T05:53:34.691Z,87.90
2019-01-30T05:56:05.771Z,92.07
2019-01-30T05:58:36.891Z,85.73
2019-01-30T06:01:08.371Z,78.90
2019-01-30T06:03:39.771Z,83.00
2019-01-30T06:06:11.251Z,60.90
2019-01-30T06:08:42.970Z,81.33
2019-01-30T06:11:15.661Z,83.40
2019-01-30T06:13:47.090Z,132.40
2019-01-30T06:16:18.131Z,87.87
2019-01-30T06:18:49.690Z,74.63
2019-01-30T06:21:21.131Z,76.20
2019-01-30T06:23:51.979Z,76.30
2019-01-30T06:26:22.852Z,57.40
2019-01-30T06:28:53.572Z,88.73
2019-01-30T06:31:27.073Z,87.23
2019-01-30T06:33:57.932Z,77.90
2019-01-30T06:36:28.731Z,71.30
2019-01-30T06:39:01.307Z,45.70
2019-01-30T06:41:33.307Z,57.47
2019-01-30T06:44:05.759Z,69.13
2019-01-30T06:46:36.347Z,76.77
2019-01-30T06:49:07.436Z,86.50
2019-01-30T06:51:38.347Z,87.40
2019-01-30T06:54:09.707Z,79.90
2019-01-30T06:56:40.744Z,82.93
2019-01-30T06:59:11.949Z,80.33
2019-01-30T07:01:42.833Z,90.33
2019-01-30T07:04:13.907Z,94.17
2019-01-30T07:06:44.627Z,89.50
2019-01-30T07:09:15.915Z,89.53
2019-01-30T07:11:47.065Z,79.27
2019-01-30T07:14:18.162Z,96.43
2019-01-30T07:16:49.215Z,91.87
2019-01-30T07:19:20.094Z,102.00
2019-01-30T07:21:52.864Z,90.93
2019-01-30T07:24:23.765Z,84.60
2019-01-30T07:26:54.535Z,83.37
2019-01-30T07:29:25.175Z,82.77
2019-01-30T07:31:57.255Z,96.63
2019-01-30T07:34:28.534Z,85.70
2019-01-30T07:36:59.415Z,87.57
2019-01-30T07:39:31.729Z,83.13
2019-01-30T07:42:03.418Z,83.37
2019-01-30T07:44:36.214Z,95.80
2019-01-30T07:47:07.773Z,76.90
2019-01-30T07:49:39.447Z,89.90
2019-01-30T07:52:10.854Z,102.17
2019-01-30T07:54:41.854Z,101.43
2019-01-30T07:57:13.183Z,87.90
2019-01-30T07:59:44.588Z,83.30
2019-01-30T08:02:16.094Z,89.57
2019-01-30T08:04:47.814Z,88.20
2019-01-30T08:07:19.835Z,73.37
2019-01-30T08:09:51.333Z,75.60
2019-01-30T08:12:22.423Z,78.03
2019-01-30T08:14:53.812Z,71.83
2019-01-30T08:17:26.214Z,64.73
2019-01-30T08:19:57.135Z,71.63
2019-01-30T08:22:28.176Z,69.73
2019-01-30T08:25:01.895Z,95.93
2019-01-30T08:27:34.081Z,81.80
2019-01-30T08:30:09.414Z,106.00
2019-01-30T08:32:44.297Z,99.73
2019-01-30T08:35:16.094Z,108.13
2019-01-30T08:37:49.814Z,98.43
2019-01-30T08:40:21.454Z,85.70
2019-01-30T08:42:52.469Z,103.53
2019-01-30T08:45:27.173Z,96.07
2019-01-30T08:47:58.259Z,101.23
2019-01-30T08:50:36.733Z,102.83
2019-01-30T08:53:07.694Z,91.03
2019-01-30T08:55:39.253Z,114.80
2019-01-30T08:58:10.453Z,74.43
2019-01-30T09:00:41.174Z,88.40
2019-01-30T09:03:15.025Z,103.77
2019-01-30T09:05:44.333Z,119.97
2019-01-30T09:08:15.174Z,149.80
2019-01-30T09:10:48.294Z,90.50
2019-01-30T09:13:21.028Z,92.53
2019-01-30T09:15:55.053Z,97.00
2019-01-30T09:18:27.294Z,92.27
2019-01-30T09:20:59.683Z,98.50
2019-01-30T09:23:30.734Z,113.63
2019-01-30T09:26:02.094Z,102.10
2019-01-30T09:28:33.013Z,88.97
2019-01-30T09:31:05.143Z,78.07
2019-01-30T09:33:36.217Z,92.90
2019-01-30T09:36:07.212Z,86.07
2019-01-30T09:38:37.973Z,88.23
2019-01-30T09:41:09.026Z,95.90
2019-01-30T09:43:40.175Z,91.60
2019-01-30T09:46:11.134Z,90.00
2019-01-30T09:48:41.974Z,89.17
2019-01-30T09:51:12.945Z,96.57
2019-01-30T09:53:43.776Z,106.17
2019-01-30T09:56:15.726Z,90.37
2019-01-30T09:58:47.175Z,87.03
2019-01-30T10:01:19.095Z,113.07
2019-01-30T10:03:50.053Z,94.50
2019-01-30T10:06:21.653Z,112.27
2019-01-30T10:08:52.734Z,104.63
2019-01-30T10:11:24.493Z,103.00
2019-01-30T10:13:55.886Z,108.33
2019-01-30T10:16:26.693Z,112.27
2019-01-30T10:18:57.693Z,81.27
2019-01-30T10:21:28.781Z,116.93
2019-01-30T10:23:59.535Z,117.03
2019-01-30T10:26:31.013Z,63.33
2019-01-30T10:29:01.936Z,117.43
2019-01-30T10:31:32.933Z,109.37
2019-01-30T10:34:04.256Z,117.70
2019-01-30T10:36:35.054Z,131.30
2019-01-30T10:39:09.937Z,109.10
2019-01-30T10:41:41.054Z,99.20
2019-01-30T10:44:13.416Z,107.73
2019-01-30T10:46:44.574Z,122.57
2019-01-30T10:49:15.456Z,130.93
2019-01-30T10:51:46.255Z,127.20
2019-01-30T10:54:16.895Z,71.40
2019-01-30T10:56:47.696Z,122.13
2019-01-30T10:59:18.574Z,131.53
2019-01-30T11:01:49.935Z,134.13
2019-01-30T11:04:20.735Z,113.07
2019-01-30T11:06:51.933Z,136.33
2019-01-30T11:09:24.563Z,119.93
2019-01-30T11:11:55.694Z,137.63
2019-01-30T11:14:27.254Z,66.63
2019-01-30T11:16:58.293Z,50.50
2019-01-30T11:19:30.056Z,117.70
2019-01-30T11:22:01.944Z,88.90
2019-01-30T11:24:35.334Z,119.80
2019-01-30T11:27:06.533Z,124.77
2019-01-30T11:29:37.654Z,133.77
2019-01-30T11:32:09.013Z,122.63
2019-01-30T11:34:39.814Z,121.60
2019-01-30T11:37:10.536Z,121.80
2019-01-30T11:39:43.154Z,135.30
2019-01-30T11:42:15.853Z,134.80
2019-01-30T11:44:47.173Z,137.60
2019-01-30T11:47:17.886Z,132.20
2019-01-30T11:49:49.293Z,96.20
2019-01-30T11:52:20.693Z,148.97
2019-01-30T11:54:51.413Z,145.10
2019-01-30T11:57:24.251Z,135.03
2019-01-30T11:59:58.654Z,129.77
2019-01-30T12:02:29.814Z,153.03
2019-01-30T12:05:00.533Z,151.63
2019-01-30T12:07:31.853Z,141.20
2019-01-30T12:10:02.858Z,130.40
2019-01-30T12:12:35.123Z,158.83
2019-01-30T12:15:08.294Z,141.27
2019-01-30T12:17:39.696Z,147.47
2019-01-30T12:20:11.723Z,144.37
2019-01-30T12:22:42.820Z,144.30
2019-01-30T12:25:16.253Z,123.77
2019-01-30T12:27:50.782Z,120.00
2019-01-30T12:30:23.917Z,126.33
2019-01-30T12:32:54.882Z,128.93
2019-01-30T12:35:26.018Z,101.97
2019-01-30T12:37:57.199Z,147.47
2019-01-30T12:40:29.002Z,126.30
2019-01-30T12:43:00.516Z,122.47
2019-01-30T12:45:33.434Z,131.47
2019-01-30T12:48:05.476Z,83.43
2019-01-30T12:50:36.543Z,137.40
2019-01-30T12:53:07.451Z,130.00
2019-01-30T12:55:38.864Z,155.07
2019-01-30T12:58:10.719Z,143.60
2019-01-30T13:00:43.251Z,138.53
2019-01-30T13:03:14.052Z,123.17
2019-01-30T13:05:45.172Z,135.37
2019-01-30T13:08:16.491Z,156.43
2019-01-30T13:10:47.413Z,134.07
2019-01-30T13:13:18.493Z,136.33
2019-01-30T13:15:49.292Z,149.97
2019-01-30T13:18:20.454Z,132.80
2019-01-30T13:20:51.613Z,150.07
2019-01-30T13:23:22.331Z,135.30
2019-01-30T13:25:53.891Z,147.77
2019-01-30T13:28:24.539Z,134.80
2019-01-30T13:30:55.866Z,117.93
2019-01-30T13:33:26.983Z,146.80
2019-01-30T13:35:58.065Z,160.90
2019-01-30T13:38:29.584Z,165.13
2019-01-30T13:41:01.864Z,138.17
2019-01-30T13:43:32.946Z,117.17
2019-01-30T13:46:05.431Z,147.33
2019-01-30T13:48:37.024Z,152.70
2019-01-30T13:51:10.942Z,119.77
2019-01-30T13:53:41.105Z,128.03
2019-01-30T13:56:13.108Z,118.77
2019-01-30T13:58:43.834Z,159.80
2019-01-30T14:01:17.961Z,160.20
2019-01-30T14:03:59.853Z,147.53
2019-01-30T14:06:36.159Z,145.00
2019-01-30T14:09:11.138Z,155.93
2019-01-30T14:11:42.307Z,126.77
2019-01-30T14:14:12.897Z,136.10
2019-01-30T14:16:43.907Z,173.23
2019-01-30T14:19:19.577Z,164.07
2019-01-30T14:21:54.933Z,126.77
2019-01-30T14:24:33.103Z,134.93
2019-01-30T14:27:56.071Z,111.67
2019-01-30T14:30:38.889Z,169.97
2019-01-30T14:33:21.517Z,105.30
2019-01-30T14:35:53.503Z,120.37
2019-01-30T14:38:35.679Z,92.97
2019-01-30T14:41:14.682Z,179.33
2019-01-30T14:43:49.728Z,182.97
2019-01-30T14:46:25.059Z,142.40
2019-01-30T14:48:59.636Z,170.73
2019-01-30T14:51:35.178Z,105.83
2019-01-30T14:54:06.619Z,177.80
2019-01-30T14:56:37.799Z,179.67
2019-01-30T14:59:10.143Z,150.63
2019-01-30T15:01:42.820Z,148.20
2019-01-30T15:04:14.400Z,148.93
2019-01-30T15:06:46.861Z,124.13
2019-01-30T15:09:26.108Z,172.53
2019-01-30T15:12:08.475Z,200.87
2019-01-30T15:14:46.347Z,193.17
2019-01-30T15:17:18.823Z,197.27
2019-01-30T15:19:54.161Z,121.87
2019-01-30T15:22:26.716Z,166.10
2019-01-30T15:24:59.418Z,159.97
2019-01-30T15:27:30.859Z,138.73
2019-01-30T15:30:03.538Z,208.43
2019-01-30T15:32:34.387Z,118.50
2019-01-30T15:35:08.058Z,192.13
2019-01-30T15:37:43.940Z,204.83
2019-01-30T15:40:21.498Z,184.43
2019-01-30T15:42:53.378Z,217.13
2019-01-30T15:45:25.140Z,240.80
2019-01-30T15:47:55.908Z,148.40
2019-01-30T15:50:29.458Z,190.23
2019-01-30T15:53:01.460Z,120.93
2019-01-30T15:55:33.506Z,231.83
2019-01-30T15:58:07.549Z,209.00
2019-01-30T16:00:43.858Z,118.83
2019-01-30T16:03:15.099Z,208.73
2019-01-30T16:05:45.742Z,135.97
2019-01-30T16:08:17.249Z,127.97
2019-01-30T16:10:48.500Z,170.10
2019-01-30T16:13:19.866Z,123.53
2019-01-30T16:15:56.617Z,221.20
2019-01-30T16:18:27.339Z,133.27
2019-01-30T16:20:57.978Z,167.47
2019-01-30T16:23:29.312Z,130.67
2019-01-30T16:25:59.898Z,145.60
2019-01-30T16:28:30.698Z,136.60
2019-01-30T16:31:01.378Z,255.37
2019-01-30T16:33:32.418Z,205.83
2019-01-30T16:36:26.901Z,187.67
2019-01-30T16:38:58.620Z,191.43
2019-01-30T16:41:29.538Z,175.17
2019-01-30T16:44:00.538Z,161.00
2019-01-30T16:46:31.539Z,243.50
2019-01-30T16:49:02.578Z,230.70
2019-01-30T16:51:33.778Z,222.30
2019-01-30T16:54:04.999Z,126.47
2019-01-30T16:56:35.678Z,132.93
2019-01-30T16:59:06.865Z,175.50
2019-01-30T17:01:37.743Z,146.50
2019-01-30T17:04:08.905Z,152.73
2019-01-30T17:06:43.726Z,203.43
2019-01-30T17:09:13.183Z,95.97
2019-01-30T17:11:43.983Z,119.33
2019-01-30T17:14:15.263Z,117.63
2019-01-30T17:16:47.103Z,164.57
2019-01-30T17:19:18.063Z,157.27
2019-01-30T17:21:50.314Z,163.50
2019-01-30T17:24:30.373Z,129.37
2019-01-30T17:27:13.733Z,103.40
2019-01-30T17:29:44.784Z,186.53
2019-01-30T17:32:16.023Z,181.23
2019-01-30T17:34:53.383Z,175.83
2019-01-30T17:37:29.863Z,169.80
2019-01-30T17:40:08.384Z,152.77
2019-01-30T17:42:47.421Z,216.50
2019-01-30T17:45:29.598Z,124.67
2019-01-30T17:48:12.569Z,189.67
2019-01-30T17:50:56.946Z,204.93
2019-01-30T17:53:41.214Z,224.77
2019-01-30T17:56:22.926Z,114.17
2019-01-30T17:59:04.289Z,199.17
2019-01-30T18:01:41.941Z,204.10
2019-01-30T18:04:32.340Z,134.43
2019-01-30T18:07:03.466Z,184.23
2019-01-30T18:09:42.112Z,199.87
2019-01-30T18:12:14.403Z,153.73
2019-01-30T18:14:45.391Z,253.63
2019-01-30T18:17:16.101Z,129.53
2019-01-30T18:19:46.940Z,162.67
2019-01-30T18:22:18.461Z,203.10
2019-01-30T18:24:49.741Z,238.07
2019-01-30T18:27:20.462Z,174.93
2019-01-30T18:29:51.301Z,109.73
2019-01-30T18:32:22.092Z,227.27
2019-01-30T18:34:53.109Z,223.87
2019-01-30T18:37:30.501Z,261.83
2019-01-30T18:40:12.892Z,190.67
2019-01-30T18:42:46.550Z,206.77
2019-01-30T18:45:24.702Z,207.23
2019-01-30T18:48:06.821Z,192.63
2019-01-30T18:50:45.781Z,250.43
2019-01-30T18:53:24.101Z,241.50
2019-01-30T18:56:05.264Z,181.70
2019-01-30T18:58:48.060Z,157.97
2019-01-30T19:01:22.481Z,243.80
2019-01-30T19:04:01.901Z,200.33
2019-01-30T19:06:35.461Z,146.97
2019-01-30T19:09:20.781Z,174.33
2019-01-30T19:11:59.412Z,189.63
2019-01-30T19:14:37.460Z,195.43
2019-01-30T19:17:10.861Z,195.80
2019-01-30T19:19:50.301Z,188.77
2019-01-30T19:22:32.981Z,208.23
2019-01-30T19:25:05.502Z,148.13
2019-01-30T19:27:37.021Z,121.43
2019-01-30T19:30:12.461Z,173.80
2019-01-30T19:32:43.422Z,236.10
2019-01-30T19:35:14.988Z,214.67
2019-01-30T19:37:45.821Z,228.83
2019-01-30T19:40:20.341Z,209.13
2019-01-30T19:42:51.783Z,225.87
2019-01-30T19:45:24.501Z,213.20
2019-01-30T19:47:55.661Z,218.70
2019-01-30T19:50:28.270Z,239.53
2019-01-30T19:53:00.301Z,239.50
2019-01-30T19:55:31.549Z,182.37
2019-01-30T19:58:02.444Z,182.53
2019-01-30T20:00:39.422Z,158.67
2019-01-30T20:03:20.748Z,179.10
2019-01-30T20:05:51.829Z,195.87
2019-01-30T20:08:22.781Z,169.17
2019-01-30T20:10:53.741Z,150.07
2019-01-30T20:13:24.588Z,192.57
2019-01-30T20:15:55.377Z,152.57
2019-01-30T20:18:26.830Z,166.20
2019-01-30T20:20:57.548Z,184.00
2019-01-30T20:23:28.983Z,271.50
2019-01-30T20:25:59.928Z,158.87
2019-01-30T20:28:36.582Z,172.53
2019-01-30T20:31:07.741Z,248.83
2019-01-30T20:33:38.709Z,250.77
2019-01-30T20:36:09.941Z,143.03
2019-01-30T20:38:45.185Z,172.93
2019-01-30T20:41:16.589Z,221.03
2019-01-30T20:43:50.430Z,265.13
2019-01-30T20:46:21.382Z,190.50
2019-01-30T20:48:53.142Z,277.57
2019-01-30T20:51:24.381Z,298.83
2019-01-30T20:54:03.068Z,297.57
2019-01-30T20:57:15.642Z,166.53
2019-01-30T21:00:17.861Z,103.00
2019-01-30T21:03:13.507Z,253.17
2019-01-30T21:06:01.701Z,176.90
2019-01-30T21:08:35.143Z,265.37
2019-01-30T21:11:08.200Z,134.40
2019-01-30T21:13:39.902Z,233.33
2019-01-30T21:16:19.261Z,246.70
2019-01-30T21:19:06.941Z,272.97
2019-01-30T21:21:58.021Z,256.70
2019-01-30T21:24:51.041Z,294.50
2019-01-30T21:27:41.021Z,274.40
2019-01-30T21:30:40.422Z,253.87
2019-01-30T21:33:32.220Z,303.67
2019-01-30T21:36:19.420Z,292.67
2019-01-30T21:38:58.714Z,265.40
2019-01-30T21:41:48.313Z,233.57
2019-01-30T21:44:37.794Z,283.17
2019-01-30T21:47:21.353Z,279.63
2019-01-30T21:50:07.673Z,210.43
2019-01-30T21:52:44.755Z,304.67
2019-01-30T21:55:34.994Z,298.63
2019-01-30T21:58:17.594Z,318.83
2019-01-30T22:01:08.398Z,264.93
2019-01-30T22:03:53.554Z,230.47
2019-01-30T22:06:49.273Z,152.40
2019-01-30T22:09:29.153Z,291.60
2019-01-30T22:12:10.915Z,288.70
2019-01-30T22:14:47.793Z,234.47
2019-01-30T22:17:34.635Z,241.23
2019-01-30T22:20:17.753Z,223.60
2019-01-30T22:23:05.914Z,287.67
2019-01-30T22:25:39.637Z,185.07
2019-01-30T22:28:11.233Z,263.47
2019-01-30T22:30:42.801Z,135.63
2019-01-30T22:33:14.275Z,149.23
2019-01-30T22:35:44.948Z,188.93
2019-01-30T22:38:18.001Z,176.67
2019-01-30T22:40:49.948Z,253.20
2019-01-30T22:43:34.732Z,143.00
2019-01-30T22:46:16.857Z,226.47
2019-01-30T22:48:54.977Z,161.30
2019-01-30T22:51:37.618Z,233.33
2019-01-30T22:54:22.605Z,96.80
2019-01-30T22:56:55.177Z,251.30
2019-01-30T22:59:26.796Z,310.13
2019-01-30T23:02:01.273Z,314.87
2019-01-30T23:04:58.533Z,404.93
2019-01-30T23:07:49.011Z,347.93
2019-01-30T23:11:03.561Z,299.90
2019-01-30T23:13:46.879Z,369.57
2019-01-30T23:16:45.563Z,156.67
2019-01-30T23:19:38.236Z,268.20
2019-01-30T23:22:40.395Z,302.87
2019-01-30T23:25:43.471Z,328.77
2019-01-30T23:28:40.474Z,288.57
2019-01-30T23:31:24.319Z,276.97
2019-01-30T23:34:19.965Z,165.53
2019-01-30T23:37:07.559Z,239.97
2019-01-30T23:39:48.192Z,213.53
2019-01-30T23:42:44.756Z,377.30
2019-01-30T23:45:44.915Z,399.07
2019-01-30T23:48:46.284Z,400.10
2019-01-30T23:51:44.284Z,356.40
2019-01-30T23:54:52.035Z,360.97
2019-01-30T23:57:40.195Z,395.03
